createdAt,value
2022-10-19T00:00:24.394Z,2.42
2022-10-19T00:02:52.237Z,3.65
2022-10-19T00:05:20.162Z,3.80
2022-10-19T00:07:47.934Z,3.28
2022-10-19T00:10:15.894Z,3.00
2022-10-19T00:12:43.635Z,5.78
2022-10-19T00:15:13.256Z,2.90
2022-10-19T00:17:43.224Z,6.18
2022-10-19T00:20:12.047Z,3.88
2022-10-19T00:22:39.903Z,3.53
2022-10-19T00:25:08.856Z,8.77
2022-10-19T00:27:37.873Z,3.40
2022-10-19T00:30:06.951Z,2.90
2022-10-19T00:32:36.367Z,4.03
2022-10-19T00:35:04.614Z,3.28
2022-10-19T00:47:27.261Z,6.05
2022-10-19T00:49:58.535Z,6.63
2022-10-19T00:52:27.706Z,4.55
2022-10-19T00:54:57.723Z,3.92
2022-10-19T00:57:29.861Z,3.67
2022-10-19T01:00:00.424Z,2.83
2022-10-19T01:02:28.327Z,5.55
2022-10-19T01:04:57.852Z,2.92
2022-10-19T01:07:26.797Z,5.95
2022-10-19T01:09:55.212Z,2.15
2022-10-19T01:12:52.273Z,6.97
2022-10-19T01:15:32.143Z,4.95
2022-10-19T01:18:08.339Z,3.55
2022-10-19T01:21:24.334Z,7.88
2022-10-19T01:24:38.413Z,3.95
2022-10-19T01:27:41.513Z,5.80
2022-10-19T01:30:22.567Z,5.07
2022-10-19T01:35:34.278Z,3.67
2022-10-19T01:38:12.820Z,7.22
2022-10-19T01:40:46.370Z,4.65
2022-10-19T01:43:21.294Z,6.15
2022-10-19T01:45:56.006Z,6.70
2022-10-19T01:48:28.152Z,5.95
2022-10-19T01:51:01.150Z,4.10
2022-10-19T01:53:34.152Z,4.07
2022-10-19T01:56:04.351Z,4.70
2022-10-19T01:58:37.245Z,4.00
2022-10-19T02:03:40.707Z,7.13
2022-10-19T02:06:12.700Z,5.75
2022-10-19T02:08:44.854Z,5.80
2022-10-19T02:11:12.916Z,5.40
2022-10-19T02:13:42.736Z,3.53
2022-10-19T02:16:17.448Z,5.28
2022-10-19T02:21:16.540Z,6.78
2022-10-19T02:23:44.338Z,3.00
2022-10-19T02:26:12.817Z,6.18
2022-10-19T02:28:40.718Z,4.55
2022-10-19T02:31:08.659Z,3.33
2022-10-19T02:33:38.180Z,2.30
2022-10-19T02:36:06.733Z,4.70
2022-10-19T02:38:37.898Z,3.83
2022-10-19T02:41:15.474Z,5.40
2022-10-19T02:43:46.240Z,3.38
2022-10-19T02:46:20.773Z,4.72
2022-10-19T02:48:52.142Z,5.05
2022-10-19T02:51:31.197Z,1.88
2022-10-19T02:54:01.277Z,4.47
2022-10-19T02:56:32.255Z,5.60
2022-10-19T02:59:00.183Z,2.47
2022-10-19T03:01:28.266Z,2.38
2022-10-19T03:03:57.487Z,6.88
2022-10-19T03:06:25.357Z,5.75
2022-10-19T03:08:53.209Z,5.07
2022-10-19T03:11:21.049Z,5.13
2022-10-19T03:13:48.964Z,3.63
2022-10-19T03:16:16.811Z,3.90
2022-10-19T03:18:44.545Z,5.15
2022-10-19T03:21:15.142Z,4.68
2022-10-19T03:23:43.308Z,4.45
2022-10-19T03:26:15.392Z,10.90
2022-10-19T03:28:43.516Z,5.80
2022-10-19T03:31:11.317Z,4.10
2022-10-19T03:33:39.109Z,2.90
2022-10-19T03:36:23.847Z,6.38
2022-10-19T03:38:52.821Z,2.72
2022-10-19T03:41:21.558Z,3.55
2022-10-19T03:43:49.513Z,2.70
2022-10-19T03:46:17.731Z,3.42
2022-10-19T03:48:46.243Z,3.78
2022-10-19T03:51:16.483Z,4.78
2022-10-19T03:53:46.842Z,5.72
2022-10-19T03:56:16.714Z,3.85
2022-10-19T03:58:46.961Z,4.38
2022-10-19T04:01:17.569Z,6.85
2022-10-19T04:03:45.454Z,4.90
2022-10-19T04:06:18.340Z,6.85
2022-10-19T04:08:51.348Z,2.60
2022-10-19T04:11:22.100Z,2.78
2022-10-19T04:13:50.458Z,7.80
2022-10-19T04:18:46.167Z,4.13
2022-10-19T04:21:21.926Z,3.60
2022-10-19T04:23:51.762Z,5.93
2022-10-19T04:26:20.297Z,7.82
2022-10-19T04:28:48.896Z,3.88
2022-10-19T04:31:17.018Z,3.50
2022-10-19T04:33:47.727Z,5.15
2022-10-19T04:36:15.441Z,2.67
2022-10-19T04:38:43.373Z,3.90
2022-10-19T04:41:15.102Z,3.97
2022-10-19T04:43:45.301Z,3.28
2022-10-19T04:46:15.009Z,2.33
2022-10-19T04:48:43.126Z,5.30
2022-10-19T04:51:11.810Z,3.03
2022-10-19T04:53:41.025Z,7.82
2022-10-19T04:56:12.654Z,4.97
2022-10-19T04:58:41.892Z,1.17
2022-10-19T05:01:10.934Z,4.15
2022-10-19T05:03:39.275Z,1.75
2022-10-19T05:06:08.017Z,1.20
2022-10-19T05:08:36.643Z,3.25
2022-10-19T05:11:06.164Z,2.50
2022-10-19T05:13:34.745Z,6.40
2022-10-19T05:16:06.952Z,2.65
2022-10-19T05:18:35.816Z,4.30
2022-10-19T05:21:04.726Z,5.25
2022-10-19T05:26:07.429Z,4.22
2022-10-19T05:28:36.301Z,2.17
2022-10-19T05:31:11.037Z,3.47
2022-10-19T05:33:39.734Z,1.60
2022-10-19T05:36:19.047Z,3.28
2022-10-19T05:38:49.431Z,5.03
2022-10-19T05:41:17.679Z,3.67
2022-10-19T05:43:46.119Z,1.48
2022-10-19T05:46:18.200Z,1.70
2022-10-19T05:48:47.120Z,4.53
2022-10-19T05:51:16.629Z,1.30
2022-10-19T05:53:44.633Z,3.90
2022-10-19T05:56:16.661Z,4.20
2022-10-19T05:58:44.940Z,1.02
2022-10-19T06:03:42.697Z,4.20
2022-10-19T06:06:10.730Z,5.47
2022-10-19T06:08:39.816Z,3.00
2022-10-19T06:11:09.789Z,3.78
2022-10-19T06:13:37.914Z,1.77
2022-10-19T06:16:07.144Z,4.05
2022-10-19T06:18:35.553Z,4.50
2022-10-19T06:23:33.122Z,3.22
2022-10-19T06:26:04.035Z,2.92
2022-10-19T06:28:32.057Z,3.83
2022-10-19T06:31:00.317Z,7.00
2022-10-19T06:35:57.683Z,3.13
2022-10-19T06:38:26.990Z,4.05
2022-10-19T06:41:01.508Z,4.80
2022-10-19T06:43:29.917Z,5.75
2022-10-19T06:48:26.008Z,4.47
2022-10-19T06:50:58.028Z,4.88
2022-10-19T06:53:29.097Z,3.83
2022-10-19T06:55:58.652Z,3.38
2022-10-19T06:58:26.869Z,5.10
2022-10-19T07:00:58.253Z,2.53
2022-10-19T07:03:26.666Z,3.50
2022-10-19T07:05:55.575Z,3.60
2022-10-19T07:08:23.744Z,3.70
2022-10-19T07:10:54.024Z,6.85
2022-10-19T07:13:22.577Z,2.05
2022-10-19T07:15:50.492Z,1.50
2022-10-19T07:18:18.332Z,2.38
2022-10-19T07:20:55.295Z,3.90
2022-10-19T07:23:23.011Z,2.83
2022-10-19T07:25:52.666Z,20.65
2022-10-19T07:28:22.955Z,2.95
2022-10-19T07:30:50.827Z,3.88
2022-10-19T07:33:18.627Z,5.70
2022-10-19T07:35:46.661Z,3.17
2022-10-19T07:38:14.575Z,3.15
2022-10-19T07:40:44.932Z,2.50
2022-10-19T07:43:15.349Z,4.30
2022-10-19T07:45:44.567Z,2.70
2022-10-19T07:48:12.427Z,3.42
2022-10-19T07:50:40.404Z,4.95
2022-10-19T07:53:08.255Z,7.57
2022-10-19T07:55:36.048Z,1.10
2022-10-19T07:58:03.876Z,1.80
2022-10-19T08:00:31.817Z,4.40
2022-10-19T08:03:31.561Z,1.88
2022-10-19T08:05:48.767Z,2.97
2022-10-19T08:08:16.541Z,2.10
2022-10-19T08:10:44.403Z,6.05
2022-10-19T08:13:12.229Z,2.45
2022-10-19T08:15:40.120Z,4.10
2022-10-19T08:18:09.500Z,2.33
2022-10-19T08:20:37.284Z,4.45
2022-10-19T08:23:05.062Z,4.53
2022-10-19T08:25:32.959Z,2.45
2022-10-19T08:28:00.867Z,2.83
2022-10-19T08:30:28.703Z,2.95
2022-10-19T08:32:56.614Z,1.70
2022-10-19T08:35:25.754Z,3.20
2022-10-19T08:37:53.941Z,2.60
2022-10-19T08:40:26.933Z,4.85
2022-10-19T08:43:01.345Z,3.63
2022-10-19T08:48:26.905Z,4.53
2022-10-19T08:50:57.488Z,4.07
2022-10-19T08:53:38.436Z,4.78
2022-10-19T08:58:57.685Z,2.33
2022-10-19T09:01:38.199Z,2.20
2022-10-19T09:04:10.854Z,3.40
2022-10-19T09:06:49.892Z,5.40
2022-10-19T09:09:19.982Z,4.40
2022-10-19T09:11:51.228Z,3.90
2022-10-19T09:14:25.583Z,2.03
2022-10-19T09:16:53.811Z,1.73
2022-10-19T09:21:58.886Z,4.93
2022-10-19T09:24:33.300Z,1.45
2022-10-19T09:27:02.664Z,1.73
2022-10-19T09:29:38.420Z,1.90
2022-10-19T09:32:13.291Z,1.42
2022-10-19T09:34:45.625Z,2.92
2022-10-19T09:37:21.894Z,2.17
2022-10-19T09:39:55.072Z,2.22
2022-10-19T09:42:29.826Z,3.63
2022-10-19T09:44:59.490Z,4.28
2022-10-19T09:47:36.060Z,2.35
2022-10-19T09:50:10.424Z,2.60
2022-10-19T09:52:41.353Z,3.65
2022-10-19T09:55:26.077Z,1.73
2022-10-19T09:58:01.427Z,2.40
2022-10-19T10:00:36.548Z,5.90
2022-10-19T10:03:06.046Z,5.28
2022-10-19T10:05:36.313Z,2.33
2022-10-19T10:08:13.397Z,6.03
2022-10-19T10:10:46.799Z,2.38
2022-10-19T10:13:19.008Z,5.15
2022-10-19T10:15:50.394Z,7.85
2022-10-19T10:18:19.912Z,5.28
2022-10-19T10:21:04.771Z,5.35
2022-10-19T10:23:37.745Z,7.20
2022-10-19T10:26:16.290Z,2.00
2022-10-19T10:28:49.399Z,3.63
2022-10-19T10:31:24.264Z,4.57
2022-10-19T10:34:10.796Z,3.53
2022-10-19T10:36:52.413Z,3.20
2022-10-19T10:39:21.874Z,3.80
2022-10-19T10:41:50.194Z,6.15
2022-10-19T10:44:22.107Z,2.92
2022-10-19T10:46:55.910Z,4.00
2022-10-19T10:49:26.981Z,2.58
2022-10-19T10:51:57.791Z,3.20
2022-10-19T10:54:29.949Z,743.78
2022-10-19T10:57:13.806Z,1521.32
2022-10-19T10:59:49.360Z,1999.90
2022-10-19T11:02:30.804Z,1999.90
2022-10-19T11:05:03.911Z,1.88
2022-10-19T11:07:35.012Z,4.97
2022-10-19T11:10:13.576Z,1.67
2022-10-19T11:12:47.470Z,3.90
2022-10-19T11:15:21.786Z,2.00
2022-10-19T11:17:59.329Z,2.80
2022-10-19T11:20:31.804Z,0.93
2022-10-19T11:23:09.292Z,28.73
2022-10-19T11:25:52.324Z,1.80
2022-10-19T11:28:34.097Z,2.47
2022-10-19T11:31:12.010Z,1.67
2022-10-19T11:33:50.096Z,1.92
2022-10-19T11:36:31.669Z,1.70
2022-10-19T11:39:13.592Z,3.20
2022-10-19T11:41:51.057Z,2.30
2022-10-19T11:44:29.248Z,1.42
2022-10-19T11:47:15.782Z,2.63
2022-10-19T11:49:55.227Z,1.17
2022-10-19T11:52:30.636Z,2.80
2022-10-19T11:55:06.960Z,2.90
2022-10-19T11:57:45.011Z,2.10
2022-10-19T12:00:37.739Z,2.30
2022-10-19T12:03:28.597Z,8.55
2022-10-19T12:06:08.262Z,4.38
2022-10-19T12:08:52.525Z,3.35
2022-10-19T12:11:29.651Z,4.32
2022-10-19T12:14:03.135Z,6.45
2022-10-19T12:16:38.291Z,2.70
2022-10-19T12:19:10.619Z,6.18
2022-10-19T12:21:40.965Z,7.32
2022-10-19T12:24:16.450Z,3.70
2022-10-19T12:26:46.063Z,2.83
2022-10-19T12:29:18.863Z,2.20
2022-10-19T12:31:48.014Z,4.70
2022-10-19T12:34:26.561Z,3.00
2022-10-19T12:36:59.166Z,5.93
2022-10-19T12:39:35.288Z,4.57
2022-10-19T12:42:11.948Z,2.72
2022-10-19T12:45:05.643Z,4.97
2022-10-19T12:47:34.069Z,6.68
2022-10-19T12:50:02.716Z,4.80
2022-10-19T12:52:41.595Z,5.57
2022-10-19T12:55:29.750Z,4.50
2022-10-19T12:58:03.842Z,6.25
2022-10-19T13:00:35.606Z,4.85
2022-10-19T13:03:07.998Z,6.68
2022-10-19T13:05:36.875Z,3.42
2022-10-19T13:08:10.652Z,5.13
2022-10-19T13:10:41.731Z,5.93
2022-10-19T13:13:52.975Z,8.77
2022-10-19T13:16:58.933Z,4.05
2022-10-19T13:19:27.174Z,4.03
2022-10-19T13:22:11.380Z,4.05
2022-10-19T13:27:26.988Z,3.28
2022-10-19T13:29:55.173Z,2.90
2022-10-19T13:32:38.762Z,5.10
2022-10-19T13:35:33.415Z,5.95
2022-10-19T13:38:13.324Z,3.50
2022-10-19T13:40:57.609Z,4.43
2022-10-19T13:43:28.087Z,4.03
2022-10-19T13:45:58.918Z,4.93
2022-10-19T13:48:38.595Z,425.65
2022-10-19T13:51:20.102Z,1526.03
2022-10-19T13:53:57.104Z,1999.90
2022-10-19T13:56:38.991Z,268.77
2022-10-19T13:59:33.326Z,1999.90
2022-10-19T14:02:23.692Z,1999.90
2022-10-19T14:05:08.531Z,1999.90
2022-10-19T14:07:44.290Z,1999.90
2022-10-19T14:10:18.052Z,1999.90
2022-10-19T14:12:47.527Z,1999.90
2022-10-19T14:15:23.976Z,1999.90
2022-10-19T14:17:51.884Z,13.60
2022-10-19T14:22:57.587Z,20.05
2022-10-19T14:25:27.212Z,19.10
2022-10-19T14:28:01.944Z,21.95
2022-10-19T14:30:32.325Z,21.73
2022-10-19T14:33:02.528Z,1999.90
2022-10-19T14:35:34.528Z,24.92
2022-10-19T14:38:03.923Z,21.35
2022-10-19T14:40:33.696Z,1999.90
2022-10-19T14:43:02.779Z,1999.90
2022-10-19T14:45:32.905Z,1999.90
2022-10-19T14:48:02.563Z,1999.90
2022-10-19T14:50:42.458Z,1999.90
2022-10-19T14:53:22.668Z,1999.90
2022-10-19T14:55:53.878Z,1999.90
2022-10-19T14:58:24.175Z,1999.90
2022-10-19T15:00:54.562Z,1999.90
2022-10-19T15:03:27.029Z,1999.90
2022-10-19T15:06:05.145Z,1999.90
2022-10-19T15:08:40.021Z,1999.90
2022-10-19T15:11:08.975Z,1999.90
2022-10-19T15:13:42.464Z,1999.90
2022-10-19T15:16:33.042Z,1999.90
2022-10-19T15:19:05.321Z,1999.90
2022-10-19T15:21:34.561Z,1999.90
2022-10-19T15:24:17.024Z,1999.90
2022-10-19T15:27:01.692Z,0.10
2022-10-19T15:29:34.722Z,0.00
2022-10-19T15:32:15.596Z,0.00
2022-10-19T15:37:20.058Z,0.10
2022-10-19T15:39:48.674Z,0.13
2022-10-19T15:42:34.739Z,0.00
2022-10-19T15:45:03.318Z,0.00
2022-10-19T15:47:31.502Z,0.10
2022-10-19T15:50:01.547Z,0.00
2022-10-19T15:52:33.476Z,0.65
2022-10-19T15:55:02.223Z,1.38
2022-10-19T15:57:33.028Z,0.40
2022-10-19T16:00:04.531Z,0.10
2022-10-19T16:02:32.313Z,0.00
2022-10-19T16:05:00.307Z,0.10
2022-10-19T16:09:59.036Z,692.53
2022-10-19T16:12:27.755Z,1999.90
2022-10-19T16:14:56.132Z,18.70
2022-10-19T16:17:24.360Z,616.50
2022-10-19T16:19:52.537Z,41.45
2022-10-19T16:22:20.416Z,1999.90
2022-10-19T16:24:48.426Z,37.30
2022-10-19T16:29:46.582Z,2.90
2022-10-19T16:32:14.507Z,3.92
2022-10-19T16:34:42.454Z,4.25
2022-10-19T16:37:10.324Z,2.67
2022-10-19T16:39:38.294Z,4.10
2022-10-19T16:44:35.535Z,2.92
2022-10-19T16:47:03.802Z,3.47
2022-10-19T16:49:31.744Z,2.85
2022-10-19T16:54:29.773Z,3.50
2022-10-19T16:56:57.494Z,2.67
2022-10-19T16:59:25.281Z,3.85
2022-10-19T17:01:54.814Z,3.83
2022-10-19T17:04:22.731Z,3.08
2022-10-19T17:06:50.836Z,5.05
2022-10-19T17:12:07.828Z,5.13
2022-10-19T17:14:36.108Z,6.35
2022-10-19T17:17:05.262Z,5.35
2022-10-19T17:19:33.234Z,5.95
2022-10-19T17:22:02.983Z,5.63
2022-10-19T17:24:31.244Z,4.72
2022-10-19T17:27:02.565Z,6.07
2022-10-19T17:29:30.505Z,6.10
2022-10-19T17:31:59.100Z,4.47
2022-10-19T17:34:28.447Z,4.28
2022-10-19T17:36:56.258Z,4.28
2022-10-19T17:39:28.966Z,7.57
2022-10-19T17:42:01.593Z,6.47
2022-10-19T17:44:31.359Z,4.18
2022-10-19T17:46:59.376Z,4.80
2022-10-19T17:49:29.995Z,4.35
2022-10-19T17:51:58.311Z,7.05
2022-10-19T17:56:54.017Z,4.47
2022-10-19T17:59:30.176Z,6.53
2022-10-19T18:04:32.046Z,4.63
2022-10-19T18:06:59.878Z,5.15
2022-10-19T18:09:28.617Z,4.82
2022-10-19T18:11:56.341Z,5.15
2022-10-19T18:14:24.340Z,4.85
2022-10-19T18:16:52.199Z,6.30
2022-10-19T18:19:20.117Z,7.22
2022-10-19T18:21:49.338Z,7.03
2022-10-19T18:24:20.357Z,7.00
2022-10-19T18:26:49.102Z,4.47
2022-10-19T18:29:19.994Z,5.40
2022-10-19T18:31:51.405Z,8.50
2022-10-19T18:34:20.927Z,6.53
2022-10-19T18:36:50.658Z,4.82
2022-10-19T18:39:18.786Z,6.03
2022-10-19T18:44:15.098Z,6.60
2022-10-19T18:46:43.022Z,5.57
2022-10-19T18:49:12.705Z,5.85
2022-10-19T18:51:40.738Z,6.80
2022-10-19T18:54:11.533Z,7.03
2022-10-19T18:56:39.426Z,7.70
2022-10-19T18:59:07.275Z,7.35
2022-10-19T19:01:35.350Z,7.10
2022-10-19T19:06:36.208Z,5.18
2022-10-19T19:09:08.189Z,9.75
2022-10-19T19:11:41.319Z,7.35
2022-10-19T19:14:13.175Z,8.05
2022-10-19T19:16:42.241Z,8.32
2022-10-19T19:19:12.295Z,8.98
2022-10-19T19:21:43.709Z,9.07
2022-10-19T19:24:14.450Z,8.32
2022-10-19T19:26:48.377Z,7.18
2022-10-19T19:29:17.006Z,3.88
2022-10-19T19:31:44.905Z,7.85
2022-10-19T19:34:13.068Z,7.97
2022-10-19T19:39:15.251Z,8.02
2022-10-19T19:41:44.692Z,8.93
2022-10-19T19:44:12.694Z,6.97
2022-10-19T19:46:40.660Z,12.02
2022-10-19T19:49:08.478Z,7.38
2022-10-19T19:51:36.542Z,7.68
2022-10-19T19:54:04.803Z,8.73
2022-10-19T19:56:32.902Z,9.93
2022-10-19T19:59:03.831Z,9.02
2022-10-19T20:01:32.642Z,9.98
2022-10-19T20:06:31.378Z,9.40
2022-10-19T20:08:59.487Z,8.57
2022-10-19T20:13:55.989Z,8.20
2022-10-19T20:19:02.594Z,8.23
2022-10-19T20:21:31.862Z,11.32
2022-10-19T20:23:59.652Z,10.85
2022-10-19T20:26:27.843Z,7.57
2022-10-19T20:31:23.797Z,8.35
2022-10-19T20:33:53.300Z,7.35
2022-10-19T20:36:22.993Z,8.57
2022-10-19T20:38:52.177Z,9.63
2022-10-19T20:41:21.338Z,10.80
2022-10-19T20:43:49.589Z,9.88
2022-10-19T20:48:46.468Z,12.45
2022-10-19T20:51:18.044Z,10.05
2022-10-19T20:53:47.500Z,8.52
2022-10-19T20:56:17.252Z,9.38
2022-10-19T20:58:45.894Z,9.52
2022-10-19T21:01:17.185Z,7.53
2022-10-19T21:03:47.236Z,8.45
2022-10-19T21:06:16.719Z,8.43
2022-10-19T21:08:44.541Z,7.80
2022-10-19T21:11:13.631Z,7.15
2022-10-19T21:13:41.573Z,8.73
2022-10-19T21:16:10.864Z,8.70
2022-10-19T21:18:39.818Z,7.35
2022-10-19T21:21:18.134Z,8.98
2022-10-19T21:23:48.168Z,8.10
2022-10-19T21:26:16.033Z,9.00
2022-10-19T21:28:47.061Z,10.20
2022-10-19T21:31:15.323Z,10.23
2022-10-19T21:33:43.289Z,6.43
2022-10-19T21:36:12.892Z,7.03
2022-10-19T21:38:42.346Z,8.70
2022-10-19T21:41:13.509Z,8.88
2022-10-19T21:43:41.297Z,8.95
2022-10-19T21:46:12.341Z,5.68
2022-10-19T21:48:40.965Z,5.68
2022-10-19T21:51:19.734Z,8.43
2022-10-19T21:53:49.189Z,7.68
2022-10-19T21:56:17.654Z,6.93
2022-10-19T21:58:46.718Z,7.30
2022-10-19T22:01:15.315Z,8.88
2022-10-19T22:03:43.172Z,8.40
2022-10-19T22:06:12.263Z,6.60
2022-10-19T22:08:40.985Z,7.70
2022-10-19T22:11:13.286Z,5.78
2022-10-19T22:13:41.990Z,5.45
2022-10-19T22:16:13.224Z,7.18
2022-10-19T22:18:41.437Z,7.07
2022-10-19T22:23:37.809Z,5.97
2022-10-19T22:26:14.781Z,6.85
2022-10-19T22:28:43.139Z,7.85
2022-10-19T22:31:11.336Z,8.18
2022-10-19T22:33:39.317Z,6.28
2022-10-19T22:36:09.039Z,8.27
2022-10-19T22:38:37.124Z,6.50
2022-10-19T22:42:00.252Z,7.25
2022-10-19T22:45:05.529Z,5.85
2022-10-19T22:47:34.771Z,9.60
2022-10-19T22:50:02.662Z,8.15
2022-10-19T22:52:30.483Z,6.85
2022-10-19T22:54:58.522Z,7.72
2022-10-19T22:57:26.336Z,6.28
2022-10-19T22:59:54.130Z,7.10
2022-10-19T23:02:22.358Z,5.88
2022-10-19T23:07:19.151Z,5.38
2022-10-19T23:09:47.091Z,7.43
2022-10-19T23:12:14.913Z,7.55
2022-10-19T23:14:42.732Z,7.05
2022-10-19T23:17:11.141Z,7.18
2022-10-19T23:19:39.132Z,7.10
2022-10-19T23:22:08.439Z,6.00
2022-10-19T23:24:36.591Z,6.72
2022-10-19T23:29:32.034Z,6.00
2022-10-19T23:31:59.863Z,6.22
2022-10-19T23:34:27.876Z,10.05
2022-10-19T23:36:55.625Z,6.57
2022-10-19T23:39:24.890Z,7.35
2022-10-19T23:41:52.718Z,6.20
2022-10-19T23:44:20.438Z,8.10
2022-10-19T23:46:48.180Z,5.97
2022-10-19T23:49:16.133Z,5.68
2022-10-19T23:51:43.969Z,8.40
2022-10-19T23:54:11.806Z,6.00
2022-10-19T23:56:41.069Z,6.47
2022-10-19T23:59:09.753Z,7.35
